sensor_id;sensor_type;location;lat;lon;timestamp;P1;durP1;ratioP1;P2;durP2;ratioP2
10565;SDS011;5331;48.148;16.326;2024-03-23T00:53:26;12.95;;;8.95;;
10565;SDS011;5331;48.148;16.326;2024-03-23T00:55:52;10.68;;;8.82;;
10565;SDS011;5331;48.148;16.326;2024-03-23T00:58:18;10.82;;;9.32;;
10565;SDS011;5331;48.148;16.326;2024-03-23T01:00:44;13.05;;;10.23;;
10565;SDS011;5331;48.148;16.326;2024-03-23T01:03:10;13.48;;;10.70;;
10565;SDS011;5331;48.148;16.326;2024-03-23T01:23:24;10.88;;;9.40;;
10565;SDS011;5331;48.148;16.326;2024-03-23T01:25:53;10.23;;;8.60;;
10565;SDS011;5331;48.148;16.326;2024-03-23T01:28:19;9.90;;;8.85;;
10565;SDS011;5331;48.148;16.326;2024-03-23T01:30:46;10.93;;;9.35;;
10565;SDS011;5331;48.148;16.326;2024-03-23T01:33:11;10.23;;;9.13;;
10565;SDS011;5331;48.148;16.326;2024-03-23T01:35:38;10.15;;;8.90;;
10565;SDS011;5331;48.148;16.326;2024-03-23T01:38:04;9.77;;;8.32;;
10565;SDS011;5331;48.148;16.326;2024-03-23T01:58:22;8.98;;;7.80;;
10565;SDS011;5331;48.148;16.326;2024-03-23T02:00:48;11.18;;;8.07;;
10565;SDS011;5331;48.148;16.326;2024-03-23T02:03:23;9.98;;;7.80;;
10565;SDS011;5331;48.148;16.326;2024-03-23T02:05:49;8.52;;;7.65;;
10565;SDS011;5331;48.148;16.326;2024-03-23T02:08:16;8.90;;;8.00;;
10565;SDS011;5331;48.148;16.326;2024-03-23T02:10:43;8.30;;;7.50;;
10565;SDS011;5331;48.148;16.326;2024-03-23T02:13:09;8.40;;;7.55;;
10565;SDS011;5331;48.148;16.326;2024-03-23T02:15:36;7.32;;;6.63;;
10565;SDS011;5331;48.148;16.326;2024-03-23T02:33:31;7.20;;;6.50;;
10565;SDS011;5331;48.148;16.326;2024-03-23T02:35:59;7.28;;;6.57;;
10565;SDS011;5331;48.148;16.326;2024-03-23T02:38:25;8.43;;;7.07;;
10565;SDS011;5331;48.148;16.326;2024-03-23T02:40:51;7.78;;;7.07;;
10565;SDS011;5331;48.148;16.326;2024-03-23T02:43:17;7.70;;;6.90;;
10565;SDS011;5331;48.148;16.326;2024-03-23T02:45:43;7.63;;;6.85;;
10565;SDS011;5331;48.148;16.326;2024-03-23T02:48:09;8.82;;;7.90;;
10565;SDS011;5331;48.148;16.326;2024-03-23T03:09:38;8.20;;;7.40;;
10565;SDS011;5331;48.148;16.326;2024-03-23T03:12:05;7.70;;;6.75;;
10565;SDS011;5331;48.148;16.326;2024-03-23T03:14:31;6.93;;;6.32;;
10565;SDS011;5331;48.148;16.326;2024-03-23T03:16:57;7.50;;;6.70;;
10565;SDS011;5331;48.148;16.326;2024-03-23T03:19:23;7.15;;;6.25;;
10565;SDS011;5331;48.148;16.326;2024-03-23T03:21:49;7.43;;;6.72;;
10565;SDS011;5331;48.148;16.326;2024-03-23T03:24:15;6.95;;;6.35;;
10565;SDS011;5331;48.148;16.326;2024-03-23T03:26:43;7.28;;;6.40;;
10565;SDS011;5331;48.148;16.326;2024-03-23T03:46:55;7.70;;;7.00;;
10565;SDS011;5331;48.148;16.326;2024-03-23T03:49:22;8.43;;;7.03;;
10565;SDS011;5331;48.148;16.326;2024-03-23T03:51:47;7.90;;;7.07;;
10565;SDS011;5331;48.148;16.326;2024-03-23T03:54:14;8.00;;;7.20;;
10565;SDS011;5331;48.148;16.326;2024-03-23T03:56:39;7.40;;;6.63;;
10565;SDS011;5331;48.148;16.326;2024-03-23T03:59:06;8.13;;;7.30;;
10565;SDS011;5331;48.148;16.326;2024-03-23T04:01:32;9.95;;;7.30;;
10565;SDS011;5331;48.148;16.326;2024-03-23T04:17:04;6.28;;;5.68;;
10565;SDS011;5331;48.148;16.326;2024-03-23T04:19:31;7.78;;;6.88;;
10565;SDS011;5331;48.148;16.326;2024-03-23T04:21:57;6.45;;;5.88;;
10565;SDS011;5331;48.148;16.326;2024-03-23T04:24:23;8.05;;;7.13;;
10565;SDS011;5331;48.148;16.326;2024-03-23T04:26:51;7.22;;;6.53;;
10565;SDS011;5331;48.148;16.326;2024-03-23T04:29:17;7.40;;;6.70;;
10565;SDS011;5331;48.148;16.326;2024-03-23T04:31:43;7.63;;;6.70;;
10565;SDS011;5331;48.148;16.326;2024-03-23T04:47:10;6.28;;;5.70;;
10565;SDS011;5331;48.148;16.326;2024-03-23T04:49:36;7.30;;;6.60;;
10565;SDS011;5331;48.148;16.326;2024-03-23T04:52:03;7.40;;;6.70;;
10565;SDS011;5331;48.148;16.326;2024-03-23T04:54:29;7.10;;;6.38;;
10565;SDS011;5331;48.148;16.326;2024-03-23T04:56:57;7.43;;;6.35;;
10565;SDS011;5331;48.148;16.326;2024-03-23T04:59:23;6.55;;;5.95;;
10565;SDS011;5331;48.148;16.326;2024-03-23T05:01:49;7.88;;;6.75;;
10565;SDS011;5331;48.148;16.326;2024-03-23T05:22:07;7.15;;;6.45;;
10565;SDS011;5331;48.148;16.326;2024-03-23T05:24:33;6.95;;;6.32;;
10565;SDS011;5331;48.148;16.326;2024-03-23T05:26:59;5.97;;;5.45;;
10565;SDS011;5331;48.148;16.326;2024-03-23T05:29:26;6.30;;;5.70;;
10565;SDS011;5331;48.148;16.326;2024-03-23T05:31:51;7.22;;;6.55;;
10565;SDS011;5331;48.148;16.326;2024-03-23T05:34:18;7.20;;;6.50;;
10565;SDS011;5331;48.148;16.326;2024-03-23T05:36:43;7.38;;;6.60;;
10565;SDS011;5331;48.148;16.326;2024-03-23T05:53:41;8.65;;;7.75;;
10565;SDS011;5331;48.148;16.326;2024-03-23T05:56:07;8.63;;;7.60;;
10565;SDS011;5331;48.148;16.326;2024-03-23T05:58:34;7.97;;;7.18;;
10565;SDS011;5331;48.148;16.326;2024-03-23T06:01:00;7.57;;;6.78;;
10565;SDS011;5331;48.148;16.326;2024-03-23T06:03:27;7.30;;;6.55;;
10565;SDS011;5331;48.148;16.326;2024-03-23T06:05:54;10.77;;;7.50;;
10565;SDS011;5331;48.148;16.326;2024-03-23T06:08:20;8.55;;;7.68;;
10565;SDS011;5331;48.148;16.326;2024-03-23T06:28:33;10.00;;;9.00;;
10565;SDS011;5331;48.148;16.326;2024-03-23T06:30:59;12.55;;;10.05;;
10565;SDS011;5331;48.148;16.326;2024-03-23T06:33:26;11.85;;;10.38;;
10565;SDS011;5331;48.148;16.326;2024-03-23T06:35:52;11.73;;;9.90;;
10565;SDS011;5331;48.148;16.326;2024-03-23T06:38:18;14.68;;;10.80;;
10565;SDS011;5331;48.148;16.326;2024-03-23T06:40:44;11.43;;;10.30;;
10565;SDS011;5331;48.148;16.326;2024-03-23T06:43:12;11.63;;;10.23;;
10565;SDS011;5331;48.148;16.326;2024-03-23T07:03:28;11.60;;;10.48;;
10565;SDS011;5331;48.148;16.326;2024-03-23T07:05:57;12.93;;;10.52;;
10565;SDS011;5331;48.148;16.326;2024-03-23T07:08:23;11.80;;;10.55;;
10565;SDS011;5331;48.148;16.326;2024-03-23T07:10:49;10.95;;;9.85;;
10565;SDS011;5331;48.148;16.326;2024-03-23T07:13:15;10.40;;;9.30;;
10565;SDS011;5331;48.148;16.326;2024-03-23T07:15:42;10.15;;;9.18;;
10565;SDS011;5331;48.148;16.326;2024-03-23T07:18:08;10.65;;;9.45;;
10565;SDS011;5331;48.148;16.326;2024-03-23T07:38:32;10.70;;;9.70;;
10565;SDS011;5331;48.148;16.326;2024-03-23T07:41:05;12.07;;;10.77;;
10565;SDS011;5331;48.148;16.326;2024-03-23T07:43:31;11.18;;;9.98;;
10565;SDS011;5331;48.148;16.326;2024-03-23T07:45:57;12.07;;;10.80;;
10565;SDS011;5331;48.148;16.326;2024-03-23T07:48:24;11.82;;;10.43;;
10565;SDS011;5331;48.148;16.326;2024-03-23T07:51:00;11.95;;;10.38;;
10565;SDS011;5331;48.148;16.326;2024-03-23T07:53:27;12.75;;;10.73;;
10565;SDS011;5331;48.148;16.326;2024-03-23T07:55:55;11.32;;;10.15;;
10565;SDS011;5331;48.148;16.326;2024-03-23T08:13:51;9.50;;;8.70;;
10565;SDS011;5331;48.148;16.326;2024-03-23T08:16:17;9.77;;;7.72;;
10565;SDS011;5331;48.148;16.326;2024-03-23T08:18:43;8.85;;;7.35;;
10565;SDS011;5331;48.148;16.326;2024-03-23T08:21:09;7.55;;;6.85;;
10565;SDS011;5331;48.148;16.326;2024-03-23T08:23:35;7.95;;;7.13;;
10565;SDS011;5331;48.148;16.326;2024-03-23T08:26:03;7.07;;;6.43;;
10565;SDS011;5331;48.148;16.326;2024-03-23T08:28:30;8.38;;;6.40;;
10565;SDS011;5331;48.148;16.326;2024-03-23T08:44:12;6.93;;;6.22;;
10565;SDS011;5331;48.148;16.326;2024-03-23T08:46:38;6.38;;;5.78;;
10565;SDS011;5331;48.148;16.326;2024-03-23T08:49:04;6.80;;;5.95;;
10565;SDS011;5331;48.148;16.326;2024-03-23T08:51:30;6.35;;;5.75;;
10565;SDS011;5331;48.148;16.326;2024-03-23T08:53:56;6.38;;;5.72;;
10565;SDS011;5331;48.148;16.326;2024-03-23T08:56:22;5.93;;;5.22;;
10565;SDS011;5331;48.148;16.326;2024-03-23T08:58:48;5.72;;;5.22;;
10565;SDS011;5331;48.148;16.326;2024-03-23T09:14:31;4.35;;;4.03;;
10565;SDS011;5331;48.148;16.326;2024-03-23T09:16:57;4.68;;;3.92;;
10565;SDS011;5331;48.148;16.326;2024-03-23T09:19:23;5.28;;;3.88;;
10565;SDS011;5331;48.148;16.326;2024-03-23T09:21:49;3.72;;;3.50;;
10565;SDS011;5331;48.148;16.326;2024-03-23T09:24:15;3.80;;;3.53;;
10565;SDS011;5331;48.148;16.326;2024-03-23T09:26:41;4.35;;;3.90;;
10565;SDS011;5331;48.148;16.326;2024-03-23T09:29:07;3.50;;;3.30;;
